createdAt,value
2017-05-28T00:02:15.000Z,1009.879
2017-05-28T00:12:15.000Z,1009.924
2017-05-28T00:22:15.000Z,1010.051
2017-05-28T00:32:15.000Z,1010.117
2017-05-28T00:42:15.000Z,1010.135
2017-05-28T00:52:15.000Z,1010.053
2017-05-28T01:02:15.000Z,1010.029
2017-05-28T01:12:15.000Z,1009.929
2017-05-28T01:22:15.000Z,1009.815
2017-05-28T01:32:16.000Z,1009.822
2017-05-28T01:42:15.000Z,1009.724
2017-05-28T01:52:15.000Z,1009.78
2017-05-28T02:02:15.000Z,1009.776
2017-05-28T02:12:16.000Z,1009.705
2017-05-28T02:22:16.000Z,1009.751
2017-05-28T02:32:16.000Z,1009.778
2017-05-28T02:42:16.000Z,1009.755
2017-05-28T02:52:16.000Z,1009.831
2017-05-28T03:02:16.000Z,1009.856
2017-05-28T03:12:16.000Z,1009.993
2017-05-28T03:22:16.000Z,1010.144
2017-05-28T03:32:16.000Z,1010.075
2017-05-28T03:42:16.000Z,1010.19
2017-05-28T03:52:16.000Z,1010.473
2017-05-28T04:02:16.000Z,1010.891
2017-05-28T04:12:16.000Z,1011.085
2017-05-28T04:22:16.000Z,1011.208
2017-05-28T04:32:16.000Z,1011.138
2017-05-28T04:42:16.000Z,1011.198
2017-05-28T04:52:16.000Z,1010.935
2017-05-28T05:02:16.000Z,1010.847
2017-05-28T05:12:16.000Z,1010.863
2017-05-28T05:22:17.000Z,1010.786
2017-05-28T05:32:16.000Z,1010.637
2017-05-28T05:42:16.000Z,1010.932
2017-05-28T05:52:16.000Z,1010.884
2017-05-28T06:02:16.000Z,1010.701
2017-05-28T06:12:16.000Z,1011.393
2017-05-28T06:22:16.000Z,1011.682
2017-05-28T06:32:16.000Z,1011.814
2017-05-28T06:42:16.000Z,1011.442
2017-05-28T06:52:16.000Z,1010.874
2017-05-28T07:02:16.000Z,1010.761
2017-05-28T07:12:16.000Z,1010.942
2017-05-28T07:22:16.000Z,1011.399
2017-05-28T07:32:16.000Z,1011.782
2017-05-28T07:42:16.000Z,1011.737
2017-05-28T07:52:16.000Z,1011.429
2017-05-28T08:02:16.000Z,1011.239
2017-05-28T08:12:16.000Z,1011.133
2017-05-28T08:22:16.000Z,1011.098
2017-05-28T08:32:16.000Z,1011.217
2017-05-28T08:42:16.000Z,1011.461
2017-05-28T08:52:16.000Z,1011.652
2017-05-28T09:02:16.000Z,1011.759
2017-05-28T09:12:16.000Z,1011.649
2017-05-28T09:22:16.000Z,1011.61
2017-05-28T09:32:16.000Z,1011.684
2017-05-28T09:42:16.000Z,1011.862
2017-05-28T09:52:16.000Z,1012.105
2017-05-28T10:02:16.000Z,1012.343
2017-05-28T10:12:16.000Z,1012.36
2017-05-28T10:22:16.000Z,1012.043
2017-05-28T10:32:16.000Z,1011.745
2017-05-28T10:42:17.000Z,1011.517
2017-05-28T10:52:17.000Z,1011.217
2017-05-28T11:02:17.000Z,1011.258
2017-05-28T11:12:17.000Z,1011.285
2017-05-28T11:22:17.000Z,1011.18
2017-05-28T11:32:17.000Z,1011.197
2017-05-28T11:42:17.000Z,1011.251
2017-05-28T11:52:17.000Z,1011.3
2017-05-28T12:02:17.000Z,1011.143
2017-05-28T12:12:17.000Z,1011.187
2017-05-28T12:22:17.000Z,1011.099
2017-05-28T12:32:17.000Z,1011.214
2017-05-28T12:42:17.000Z,1011.087
2017-05-28T12:52:17.000Z,1010.842
2017-05-28T13:02:17.000Z,1010.707
2017-05-28T13:12:17.000Z,1010.778
2017-05-28T13:22:17.000Z,1010.64
2017-05-28T13:32:18.000Z,1010.501
2017-05-28T13:42:17.000Z,1010.48
2017-05-28T13:52:17.000Z,1010.496
2017-05-28T14:02:17.000Z,1010.456
2017-05-28T14:12:17.000Z,1010.311
2017-05-28T14:22:17.000Z,1010.269
2017-05-28T14:32:17.000Z,1010.195
2017-05-28T14:42:17.000Z,1010
2017-05-28T14:52:17.000Z,1009.958
2017-05-28T15:02:17.000Z,1009.964
2017-05-28T15:12:17.000Z,1009.991
2017-05-28T15:22:17.000Z,1009.928
2017-05-28T15:32:17.000Z,1009.876
2017-05-28T15:42:17.000Z,1009.833
2017-05-28T15:52:17.000Z,1009.7
2017-05-28T16:02:17.000Z,1009.65
2017-05-28T16:12:17.000Z,1009.609
2017-05-28T16:22:17.000Z,1009.525
2017-05-28T16:32:17.000Z,1009.447
2017-05-28T16:42:17.000Z,1009.37
2017-05-28T16:52:17.000Z,1009.287
2017-05-28T17:02:17.000Z,1009.302
2017-05-28T17:12:17.000Z,1009.372
2017-05-28T17:22:17.000Z,1009.343
2017-05-28T17:32:18.000Z,1009.416
2017-05-28T17:42:17.000Z,1009.341
2017-05-28T17:52:17.000Z,1009.376
2017-05-28T18:02:17.000Z,1009.279
2017-05-28T18:12:17.000Z,1009.203
2017-05-28T18:22:17.000Z,1009.122
2017-05-28T18:32:17.000Z,1009.172
2017-05-28T18:42:17.000Z,1009.202
2017-05-28T18:52:18.000Z,1009.21
2017-05-28T19:02:18.000Z,1009.155
2017-05-28T19:12:18.000Z,1009.209
2017-05-28T19:22:18.000Z,1009.235
2017-05-28T19:32:19.000Z,1009.282
2017-05-28T19:42:18.000Z,1009.302
2017-05-28T19:52:18.000Z,1009.349
2017-05-28T20:02:18.000Z,1009.416
2017-05-28T20:12:18.000Z,1009.403
2017-05-28T20:32:18.000Z,1009.328
2017-05-28T20:52:18.000Z,1009.493
2017-05-28T21:02:18.000Z,1009.531
2017-05-28T21:12:18.000Z,1009.432
2017-05-28T21:32:18.000Z,1009.294
2017-05-28T21:52:18.000Z,1009.254
2017-05-28T22:02:18.000Z,1009.229
2017-05-28T22:12:18.000Z,1009.158
2017-05-28T22:32:18.000Z,1008.879
2017-05-28T22:52:22.000Z,1008.67
2017-05-28T23:12:18.000Z,1008.383
2017-05-28T23:32:18.000Z,1008.393
2017-05-28T23:52:18.000Z,1008.297
